Time;durP1;ratioP1;P1;durP2;ratioP2;P2;SDS_P1;SDS_P2;PMS_P1;PMS_P2;Temp;Humidity;BMP_temperature;BMP_pressure;BME280_temperature;BME280_humidity;BME280_pressure;Samples;Min_cycle;Max_cycle;Signal;HPM_P1;HPM_P2
2023/12/02 00:01:46;;;;;;;50.03;25.90;;;;;;;;;;4988761;28;20038;-79
2023/12/02 00:04:12;;;;;;;48.03;26.17;;;;;;;;;;4987990;28;20042;-79
2023/12/02 00:06:38;;;;;;;47.47;25.45;;;;;;;;;;4988989;28;20461;-79
2023/12/02 00:09:04;;;;;;;44.60;25.02;;;;;;;;;;4991529;28;20133;-79
2023/12/02 00:11:30;;;;;;;44.47;25.83;;;;;;;;;;4987788;28;20042;-79
2023/12/02 00:13:56;;;;;;;45.15;24.58;;;;;;;;;;4984454;28;20058;-79
2023/12/02 00:16:22;;;;;;;44.53;24.27;;;;;;;;;;4989624;28;20069;-79
2023/12/02 00:18:49;;;;;;;45.33;24.77;;;;;;;;;;4987750;28;20061;-79
2023/12/02 00:21:15;;;;;;;45.28;24.88;;;;;;;;;;4992378;28;20042;-79
2023/12/02 00:23:42;;;;;;;43.90;24.73;;;;;;;;;;4985058;28;20045;-79
2023/12/02 00:26:08;;;;;;;46.88;24.27;;;;;;;;;;4996722;28;20539;-79
2023/12/02 00:28:34;;;;;;;42.53;22.85;;;;;;;;;;4997285;28;20088;-79
2023/12/02 00:31:00;;;;;;;49.88;25.23;;;;;;;;;;4999778;28;20050;-78
2023/12/02 00:33:26;;;;;;;47.28;25.10;;;;;;;;;;4999967;28;20042;-78
2023/12/02 00:35:52;;;;;;;46.35;25.40;;;;;;;;;;5006432;28;20046;-78
2023/12/02 00:38:18;;;;;;;42.42;25.10;;;;;;;;;;5007144;28;20050;-79
2023/12/02 00:40:44;;;;;;;45.60;26.13;;;;;;;;;;4984946;28;20054;-79
2023/12/02 00:43:10;;;;;;;48.35;26.33;;;;;;;;;;4982576;28;20081;-79
2023/12/02 00:45:37;;;;;;;48.92;26.85;;;;;;;;;;4986279;28;20102;-79
2023/12/02 00:48:03;;;;;;;46.47;26.08;;;;;;;;;;4983844;28;20038;-79
2023/12/02 00:50:29;;;;;;;48.25;27.00;;;;;;;;;;4986155;28;20058;-79
2023/12/02 00:52:55;;;;;;;46.97;25.83;;;;;;;;;;4984321;28;20042;-79
2023/12/02 00:55:22;;;;;;;44.15;23.75;;;;;;;;;;4987122;28;20046;-79
2023/12/02 00:57:48;;;;;;;46.33;25.05;;;;;;;;;;4985122;28;20501;-79
2023/12/02 01:00:15;;;;;;;45.40;26.08;;;;;;;;;;4986898;28;20412;-79
2023/12/02 01:02:41;;;;;;;49.17;25.95;;;;;;;;;;4991682;28;20038;-79
2023/12/02 01:05:07;;;;;;;40.90;23.75;;;;;;;;;;4994764;28;20046;-79
2023/12/02 01:07:34;;;;;;;48.40;25.05;;;;;;;;;;4996024;28;20412;-79
2023/12/02 01:10:00;;;;;;;47.90;25.00;;;;;;;;;;4990471;28;20041;-79
2023/12/02 01:12:26;;;;;;;45.05;25.27;;;;;;;;;;4985134;28;20054;-79
2023/12/02 01:14:52;;;;;;;49.83;25.38;;;;;;;;;;4988101;28;20098;-79
2023/12/02 01:17:18;;;;;;;47.17;24.83;;;;;;;;;;4982405;28;20043;-79
2023/12/02 01:19:46;;;;;;;44.13;23.95;;;;;;;;;;4987732;28;20436;-79
2023/12/02 01:22:12;;;;;;;49.65;25.13;;;;;;;;;;4985814;28;20050;-79
2023/12/02 01:24:38;;;;;;;48.13;25.33;;;;;;;;;;4990874;28;20050;-79
2023/12/02 01:27:04;;;;;;;45.95;23.95;;;;;;;;;;4995627;28;20484;-79
2023/12/02 01:29:30;;;;;;;45.80;25.15;;;;;;;;;;4995815;28;20072;-79
2023/12/02 01:31:56;;;;;;;50.97;26.05;;;;;;;;;;4995313;28;20092;-79
2023/12/02 01:34:23;;;;;;;48.15;24.73;;;;;;;;;;4995524;28;20488;-79
2023/12/02 01:36:49;;;;;;;48.47;25.75;;;;;;;;;;4994731;28;20054;-79
2023/12/02 01:39:15;;;;;;;48.70;25.60;;;;;;;;;;4995554;28;20097;-79
2023/12/02 01:41:41;;;;;;;49.35;25.30;;;;;;;;;;4995438;28;20093;-79
2023/12/02 01:44:07;;;;;;;51.95;25.90;;;;;;;;;;4995483;28;20130;-79
2023/12/02 01:46:33;;;;;;;50.17;26.00;;;;;;;;;;4994468;28;20054;-79
2023/12/02 01:49:00;;;;;;;48.80;25.48;;;;;;;;;;4995946;28;20058;-79
2023/12/02 01:51:29;;;;;;;49.17;25.75;;;;;;;;;;5005053;28;20054;-79
2023/12/02 01:53:56;;;;;;;51.83;26.38;;;;;;;;;;4998242;28;20045;-79
2023/12/02 01:56:22;;;;;;;52.00;25.90;;;;;;;;;;4988523;28;20507;-79
2023/12/02 01:58:48;;;;;;;49.38;25.55;;;;;;;;;;4986554;28;20144;-79
2023/12/02 02:01:14;;;;;;;47.03;24.63;;;;;;;;;;4986663;28;20188;-79
2023/12/02 02:03:40;;;;;;;49.35;26.30;;;;;;;;;;4985491;28;20692;-79
2023/12/02 02:06:10;;;;;;;52.00;26.33;;;;;;;;;;4986447;28;20108;-79
2023/12/02 02:08:36;;;;;;;49.38;25.63;;;;;;;;;;4983946;28;20046;-79
2023/12/02 02:11:02;;;;;;;51.60;25.95;;;;;;;;;;4982321;28;20435;-79
2023/12/02 02:13:28;;;;;;;51.70;25.35;;;;;;;;;;4987619;28;20050;-79
2023/12/02 02:15:55;;;;;;;48.95;26.13;;;;;;;;;;4965681;28;20547;-79
2023/12/02 02:18:21;;;;;;;49.25;25.33;;;;;;;;;;4982845;28;20506;-79
2023/12/02 02:20:50;;;;;;;49.42;26.02;;;;;;;;;;4986165;28;20074;-79
2023/12/02 02:23:18;;;;;;;52.00;26.15;;;;;;;;;;4985431;28;20053;-79
2023/12/02 02:25:44;;;;;;;49.60;25.65;;;;;;;;;;4990730;28;20038;-79
2023/12/02 02:28:10;;;;;;;50.78;26.23;;;;;;;;;;4986249;28;20109;-79
2023/12/02 02:30:36;;;;;;;50.30;26.48;;;;;;;;;;5001974;28;20392;-79
2023/12/02 02:33:02;;;;;;;51.25;26.45;;;;;;;;;;4994345;28;20053;-79
2023/12/02 02:35:28;;;;;;;52.75;26.20;;;;;;;;;;4994654;28;20050;-79
2023/12/02 02:37:54;;;;;;;50.20;25.65;;;;;;;;;;4994736;28;20093;-79
2023/12/02 02:40:20;;;;;;;50.17;26.13;;;;;;;;;;4994418;28;20050;-79
2023/12/02 02:42:50;;;;;;;48.92;24.88;;;;;;;;;;4994375;28;20496;-79
2023/12/02 02:45:16;;;;;;;49.80;25.77;;;;;;;;;;4993461;28;20377;-78
2023/12/02 02:47:42;;;;;;;53.08;25.15;;;;;;;;;;4994161;28;20054;-78
2023/12/02 02:50:08;;;;;;;50.50;26.25;;;;;;;;;;4994464;28;20050;-79
2023/12/02 02:52:34;;;;;;;51.22;25.70;;;;;;;;;;4996712;28;20125;-78
2023/12/02 02:55:00;;;;;;;48.53;25.40;;;;;;;;;;5000312;28;20042;-78
2023/12/02 02:57:26;;;;;;;52.70;26.65;;;;;;;;;;4993595;28;20049;-78
2023/12/02 02:59:52;;;;;;;45.80;24.95;;;;;;;;;;4985429;28;20054;-79
2023/12/02 03:02:18;;;;;;;48.30;25.35;;;;;;;;;;4982747;28;20046;-79
2023/12/02 03:04:44;;;;;;;50.88;26.58;;;;;;;;;;4984976;28;20038;-79
2023/12/02 03:07:10;;;;;;;48.75;26.90;;;;;;;;;;4985228;28;20169;-79
2023/12/02 03:09:36;;;;;;;48.67;26.20;;;;;;;;;;4987006;28;20043;-79
2023/12/02 03:12:02;;;;;;;49.03;25.67;;;;;;;;;;4983720;28;20050;-79
2023/12/02 03:14:28;;;;;;;49.13;25.88;;;;;;;;;;4987555;28;20061;-79
2023/12/02 03:16:54;;;;;;;51.47;26.00;;;;;;;;;;4991789;28;20496;-79
2023/12/02 03:19:21;;;;;;;48.78;25.63;;;;;;;;;;4996501;28;20133;-79
2023/12/02 03:21:47;;;;;;;50.15;26.13;;;;;;;;;;4997390;28;20122;-79
2023/12/02 03:24:13;;;;;;;52.42;26.73;;;;;;;;;;4999197;28;20042;-79
2023/12/02 03:26:39;;;;;;;49.42;26.70;;;;;;;;;;4993603;28;20416;-79
2023/12/02 03:29:05;;;;;;;47.17;25.30;;;;;;;;;;4991335;28;20411;-79
2023/12/02 03:31:31;;;;;;;51.72;25.70;;;;;;;;;;4996046;28;20057;-79
2023/12/02 03:33:57;;;;;;;50.05;25.45;;;;;;;;;;4995793;28;20046;-79
2023/12/02 03:36:23;;;;;;;48.17;25.70;;;;;;;;;;4997173;28;20042;-79
2023/12/02 03:38:49;;;;;;;49.95;25.65;;;;;;;;;;4996083;28;20058;-79
2023/12/02 03:41:15;;;;;;;48.40;25.00;;;;;;;;;;5010678;28;20049;-78
2023/12/02 03:43:42;;;;;;;49.90;25.63;;;;;;;;;;4995146;28;20539;-79
2023/12/02 03:46:08;;;;;;;54.22;27.23;;;;;;;;;;4997731;28;20081;-79
2023/12/02 03:48:34;;;;;;;49.75;26.20;;;;;;;;;;4997431;28;20549;-79
2023/12/02 03:51:00;;;;;;;49.10;25.90;;;;;;;;;;4997297;28;20503;-79
2023/12/02 03:53:30;;;;;;;51.53;26.80;;;;;;;;;;4996799;28;20459;-79
2023/12/02 03:55:56;;;;;;;47.50;25.23;;;;;;;;;;4997330;28;20054;-79
2023/12/02 03:58:22;;;;;;;48.15;27.30;;;;;;;;;;4997607;28;20105;-79
2023/12/02 04:00:48;;;;;;;52.75;27.20;;;;;;;;;;4997442;28;20053;-79
2023/12/02 04:03:14;;;;;;;49.65;24.95;;;;;;;;;;4997216;28;20057;-79
2023/12/02 04:05:41;;;;;;;47.05;25.48;;;;;;;;;;4997354;28;20046;-79
2023/12/02 04:08:08;;;;;;;51.30;26.17;;;;;;;;;;4991680;28;20409;-79
2023/12/02 04:10:34;;;;;;;51.63;25.25;;;;;;;;;;4986926;28;20085;-79
2023/12/02 04:13:00;;;;;;;49.63;27.17;;;;;;;;;;4984543;28;20512;-79
2023/12/02 04:15:26;;;;;;;47.90;25.48;;;;;;;;;;4994455;28;20526;-79
2023/12/02 04:17:52;;;;;;;48.60;27.45;;;;;;;;;;5004237;28;20039;-79
2023/12/02 04:20:18;;;;;;;49.78;27.05;;;;;;;;;;4999426;28;20546;-79
2023/12/02 04:22:44;;;;;;;49.97;26.75;;;;;;;;;;4995066;28;20057;-79
2023/12/02 04:25:10;;;;;;;49.95;25.83;;;;;;;;;;4995571;28;20132;-79
2023/12/02 04:27:36;;;;;;;49.75;26.27;;;;;;;;;;4986742;28;20057;-79
2023/12/02 04:30:04;;;;;;;51.67;25.63;;;;;;;;;;4987105;28;20455;-79
2023/12/02 04:32:30;;;;;;;48.47;26.23;;;;;;;;;;4986188;28;20105;-79
2023/12/02 04:34:56;;;;;;;48.70;26.90;;;;;;;;;;4987830;28;20107;-79
2023/12/02 04:37:25;;;;;;;49.50;26.92;;;;;;;;;;4985037;28;20055;-79
2023/12/02 04:39:52;;;;;;;48.63;25.73;;;;;;;;;;4986727;28;20122;-79
2023/12/02 04:42:18;;;;;;;48.63;27.10;;;;;;;;;;4984871;28;20046;-79
2023/12/02 04:44:44;;;;;;;49.10;27.02;;;;;;;;;;4984670;28;20034;-79
2023/12/02 04:47:10;;;;;;;46.70;25.75;;;;;;;;;;4984107;28;20129;-79
2023/12/02 04:49:37;;;;;;;49.70;25.73;;;;;;;;;;4985846;28;20420;-79
2023/12/02 04:52:03;;;;;;;49.40;26.20;;;;;;;;;;4986420;28;20046;-79
2023/12/02 04:54:29;;;;;;;44.67;25.55;;;;;;;;;;4986940;28;20046;-79
2023/12/02 04:56:56;;;;;;;45.90;24.83;;;;;;;;;;4985337;28;20054;-79
2023/12/02 04:59:24;;;;;;;49.72;26.25;;;;;;;;;;4986379;28;20128;-79
2023/12/02 05:01:50;;;;;;;43.55;24.77;;;;;;;;;;4984115;28;20050;-79
2023/12/02 05:04:16;;;;;;;43.03;24.13;;;;;;;;;;4989226;28;20054;-79
2023/12/02 05:06:43;;;;;;;43.40;24.45;;;;;;;;;;4987358;28;20057;-79
2023/12/02 05:09:09;;;;;;;46.45;24.90;;;;;;;;;;4987278;28;20225;-79
2023/12/02 05:11:35;;;;;;;47.60;26.60;;;;;;;;;;4992338;28;20054;-79
2023/12/02 05:14:01;;;;;;;48.15;26.35;;;;;;;;;;4986587;28;20405;-79
2023/12/02 05:16:27;;;;;;;42.95;25.08;;;;;;;;;;4993597;28;20102;-79
2023/12/02 05:18:53;;;;;;;48.55;25.73;;;;;;;;;;4992456;28;20056;-79
2023/12/02 05:21:19;;;;;;;46.05;25.65;;;;;;;;;;4985985;28;20046;-79
2023/12/02 05:23:46;;;;;;;50.13;27.40;;;;;;;;;;4986852;28;20438;-79
2023/12/02 05:26:12;;;;;;;43.10;24.38;;;;;;;;;;4989242;28;20057;-79
2023/12/02 05:28:38;;;;;;;43.90;24.75;;;;;;;;;;4987052;28;20046;-79
2023/12/02 05:31:05;;;;;;;47.78;25.58;;;;;;;;;;4986438;28;20500;-79
2023/12/02 05:33:34;;;;;;;47.30;25.30;;;;;;;;;;4983757;28;20059;-79
2023/12/02 05:36:00;;;;;;;43.47;25.48;;;;;;;;;;4985202;28;20046;-79
2023/12/02 05:38:26;;;;;;;46.90;26.27;;;;;;;;;;4986228;28;20046;-79
2023/12/02 05:40:52;;;;;;;49.88;26.15;;;;;;;;;;4995486;28;20471;-79
2023/12/02 05:43:18;;;;;;;47.42;25.80;;;;;;;;;;4995313;28;20038;-79
2023/12/02 05:45:44;;;;;;;47.15;27.00;;;;;;;;;;4995733;28;20050;-79
2023/12/02 05:48:10;;;;;;;47.97;25.17;;;;;;;;;;4995249;28;20531;-79
2023/12/02 05:50:36;;;;;;;48.13;26.50;;;;;;;;;;4998136;28;20046;-79
2023/12/02 05:53:04;;;;;;;47.03;25.63;;;;;;;;;;4998852;28;20057;-79
2023/12/02 05:55:30;;;;;;;49.42;26.77;;;;;;;;;;4995570;28;20504;-79
2023/12/02 05:57:56;;;;;;;50.50;26.98;;;;;;;;;;4995327;28;20085;-79
2023/12/02 06:00:23;;;;;;;46.22;25.98;;;;;;;;;;4995099;28;20039;-79
2023/12/02 06:02:49;;;;;;;41.30;24.25;;;;;;;;;;4995334;28;20065;-79
2023/12/02 06:05:15;;;;;;;43.13;24.15;;;;;;;;;;4995109;28;20050;-79
2023/12/02 06:07:41;;;;;;;45.20;25.13;;;;;;;;;;4995128;28;20063;-79
2023/12/02 06:10:08;;;;;;;48.08;26.95;;;;;;;;;;4985875;28;20051;-79
2023/12/02 06:12:34;;;;;;;46.83;26.05;;;;;;;;;;4984960;28;20105;-79
2023/12/02 06:15:00;;;;;;;44.72;25.48;;;;;;;;;;4983264;28;20436;-79
2023/12/02 06:17:26;;;;;;;46.35;25.40;;;;;;;;;;4984428;28;20104;-79
2023/12/02 06:19:52;;;;;;;47.83;25.15;;;;;;;;;;4983179;28;20046;-79
2023/12/02 06:22:18;;;;;;;41.83;25.13;;;;;;;;;;4982980;28;20089;-79
2023/12/02 06:24:44;;;;;;;43.47;25.13;;;;;;;;;;4987230;28;21703;-79
2023/12/02 06:27:10;;;;;;;42.47;24.63;;;;;;;;;;4984488;28;20053;-79
2023/12/02 06:29:36;;;;;;;43.42;23.85;;;;;;;;;;4983653;28;20042;-79
2023/12/02 06:32:02;;;;;;;43.28;25.45;;;;;;;;;;4983813;28;20051;-79
2023/12/02 06:34:30;;;;;;;45.35;26.52;;;;;;;;;;4984952;28;20080;-79
2023/12/02 06:36:56;;;;;;;53.10;28.25;;;;;;;;;;4983591;28;20058;-79
2023/12/02 06:39:22;;;;;;;53.67;28.73;;;;;;;;;;4981938;28;20097;-79
2023/12/02 06:41:48;;;;;;;52.92;29.75;;;;;;;;;;4984812;28;20046;-79
2023/12/02 06:44:14;;;;;;;55.60;30.33;;;;;;;;;;4985535;28;20069;-79
2023/12/02 06:46:40;;;;;;;51.05;27.77;;;;;;;;;;4985741;28;20066;-79
2023/12/02 06:49:06;;;;;;;48.42;27.35;;;;;;;;;;4982831;28;20081;-79
2023/12/02 06:51:32;;;;;;;49.85;28.05;;;;;;;;;;4983645;28;20057;-79
2023/12/02 06:53:59;;;;;;;43.30;24.27;;;;;;;;;;4985714;28;20046;-79
2023/12/02 06:56:25;;;;;;;47.95;26.38;;;;;;;;;;4982863;28;20505;-79
2023/12/02 06:58:51;;;;;;;48.40;27.33;;;;;;;;;;4984244;28;20038;-80
2023/12/02 07:01:25;;;;;;;46.85;26.33;;;;;;;;;;4983657;28;20046;-79
2023/12/02 07:03:51;;;;;;;43.58;24.60;;;;;;;;;;4986225;28;20045;-79
2023/12/02 07:06:17;;;;;;;42.25;24.67;;;;;;;;;;4984611;28;20457;-79
2023/12/02 07:08:43;;;;;;;46.08;24.75;;;;;;;;;;4988438;28;20050;-79
2023/12/02 07:11:09;;;;;;;46.15;25.23;;;;;;;;;;4988480;28;20045;-78
2023/12/02 07:13:35;;;;;;;48.30;25.85;;;;;;;;;;4989786;28;20047;-78
2023/12/02 07:16:01;;;;;;;48.67;26.40;;;;;;;;;;4997167;28;20072;-78
2023/12/02 07:18:27;;;;;;;46.03;26.67;;;;;;;;;;4986194;28;20046;-78
2023/12/02 07:20:53;;;;;;;51.55;26.98;;;;;;;;;;4989929;28;20097;-78
2023/12/02 07:23:25;;;;;;;49.20;26.45;;;;;;;;;;4986749;28;20042;-78
2023/12/02 07:25:51;;;;;;;43.08;24.20;;;;;;;;;;4985497;28;20050;-79
2023/12/02 07:28:17;;;;;;;50.05;26.67;;;;;;;;;;4983596;28;20042;-79
2023/12/02 07:30:44;;;;;;;45.22;25.80;;;;;;;;;;4982257;28;20049;-79
2023/12/02 07:33:10;;;;;;;46.03;25.05;;;;;;;;;;4983027;28;20070;-78
2023/12/02 07:35:36;;;;;;;44.88;25.42;;;;;;;;;;4979194;28;20590;-78
2023/12/02 07:38:02;;;;;;;45.70;25.55;;;;;;;;;;4989454;28;20428;-78
2023/12/02 07:40:28;;;;;;;47.30;25.48;;;;;;;;;;4993813;28;20050;-78
2023/12/02 07:42:54;;;;;;;45.17;25.10;;;;;;;;;;4991286;28;20069;-79
2023/12/02 07:45:20;;;;;;;48.25;25.83;;;;;;;;;;4986087;28;20043;-79
2023/12/02 07:47:46;;;;;;;46.05;25.60;;;;;;;;;;4991827;28;20492;-79
2023/12/02 07:50:13;;;;;;;49.42;25.77;;;;;;;;;;4986696;28;20058;-78
2023/12/02 07:52:39;;;;;;;45.95;25.67;;;;;;;;;;4991345;28;20055;-79
2023/12/02 07:55:05;;;;;;;48.38;26.48;;;;;;;;;;4989803;28;20065;-79
2023/12/02 07:57:34;;;;;;;46.60;27.10;;;;;;;;;;4992336;28;20073;-79
2023/12/02 08:00:00;;;;;;;49.88;28.50;;;;;;;;;;4991861;28;20046;-79
2023/12/02 08:02:26;;;;;;;49.13;28.20;;;;;;;;;;4995756;28;20058;-79
2023/12/02 08:04:52;;;;;;;49.38;27.50;;;;;;;;;;4994838;28;20045;-79
2023/12/02 08:07:18;;;;;;;49.95;26.63;;;;;;;;;;4995036;28;20116;-79
2023/12/02 08:09:44;;;;;;;51.22;27.85;;;;;;;;;;4995077;28;20061;-79
2023/12/02 08:12:10;;;;;;;51.72;29.33;;;;;;;;;;4994468;28;20058;-79
2023/12/02 08:14:36;;;;;;;53.40;27.80;;;;;;;;;;4995983;28;20049;-79
2023/12/02 08:17:03;;;;;;;47.95;26.52;;;;;;;;;;4978429;28;20051;-79
2023/12/02 08:19:29;;;;;;;47.30;25.73;;;;;;;;;;4996138;28;20499;-79
2023/12/02 08:21:55;;;;;;;49.63;26.67;;;;;;;;;;4996212;28;20046;-79
2023/12/02 08:24:21;;;;;;;46.88;26.27;;;;;;;;;;4994963;28;20043;-79
2023/12/02 08:26:47;;;;;;;52.30;27.90;;;;;;;;;;4996239;28;20042;-79
2023/12/02 08:29:14;;;;;;;43.90;24.85;;;;;;;;;;4996007;28;20129;-79
2023/12/02 08:31:40;;;;;;;45.47;25.85;;;;;;;;;;4995970;28;20385;-79
2023/12/02 08:34:06;;;;;;;47.47;26.70;;;;;;;;;;4995636;28;20038;-79
2023/12/02 08:36:32;;;;;;;48.80;27.38;;;;;;;;;;4995826;28;20093;-79
2023/12/02 08:38:58;;;;;;;50.22;26.77;;;;;;;;;;4994275;28;20130;-79
2023/12/02 08:41:24;;;;;;;47.65;26.38;;;;;;;;;;4991148;28;20516;-79
2023/12/02 08:43:50;;;;;;;43.92;24.90;;;;;;;;;;4992084;28;20042;-79
2023/12/02 08:46:19;;;;;;;46.97;25.85;;;;;;;;;;4996525;28;20042;-79
2023/12/02 08:48:46;;;;;;;47.25;27.05;;;;;;;;;;4995089;28;20042;-79
2023/12/02 08:51:12;;;;;;;47.15;26.38;;;;;;;;;;4993643;28;20046;-79
2023/12/02 08:53:38;;;;;;;46.88;26.67;;;;;;;;;;4991883;28;20046;-79
2023/12/02 08:56:08;;;;;;;52.40;27.40;;;;;;;;;;4991855;28;20054;-79
2023/12/02 08:58:34;;;;;;;48.60;26.60;;;;;;;;;;4994564;28;20050;-79
2023/12/02 09:01:00;;;;;;;47.47;26.70;;;;;;;;;;4994191;28;20440;-79
2023/12/02 09:03:27;;;;;;;47.95;26.42;;;;;;;;;;4994625;28;20049;-79
2023/12/02 09:05:55;;;;;;;47.45;26.80;;;;;;;;;;4994780;28;20385;-79
2023/12/02 09:08:21;;;;;;;49.45;27.35;;;;;;;;;;4996673;28;20034;-79
2023/12/02 09:10:47;;;;;;;40.35;23.45;;;;;;;;;;4997348;28;20069;-79
2023/12/02 09:13:36;;;;;;;47.17;26.33;;;;;;;;;;4997988;28;20053;-79
2023/12/02 09:16:03;;;;;;;45.22;25.33;;;;;;;;;;4981389;28;20120;-79
2023/12/02 09:18:29;;;;;;;44.17;26.45;;;;;;;;;;4995785;28;20065;-80
2023/12/02 09:20:55;;;;;;;44.80;25.77;;;;;;;;;;4994732;28;20440;-80
2023/12/02 09:23:21;;;;;;;49.20;27.80;;;;;;;;;;4994994;28;20042;-80
2023/12/02 09:25:48;;;;;;;46.53;26.73;;;;;;;;;;4991081;28;20043;-79
2023/12/02 09:28:15;;;;;;;46.95;28.42;;;;;;;;;;4976169;28;20061;-79
2023/12/02 09:30:45;;;;;;;45.42;25.88;;;;;;;;;;4976270;28;20523;-79
2023/12/02 09:33:11;;;;;;;49.50;27.38;;;;;;;;;;4990548;28;20074;-80
2023/12/02 09:35:37;;;;;;;46.30;26.73;;;;;;;;;;4996105;28;20042;-79
2023/12/02 09:38:04;;;;;;;47.45;28.15;;;;;;;;;;4993651;28;20049;-79
2023/12/02 09:40:35;;;;;;;50.58;28.10;;;;;;;;;;4995871;28;20046;-80
2023/12/02 09:43:04;;;;;;;45.75;27.80;;;;;;;;;;4995642;28;20046;-80
2023/12/02 09:45:35;;;;;;;48.97;27.48;;;;;;;;;;4994482;28;20046;-79
2023/12/02 09:48:31;;;;;;;49.78;27.65;;;;;;;;;;4993647;28;20050;-79
2023/12/02 09:51:16;;;;;;;47.67;26.92;;;;;;;;;;4958075;28;20051;-79
2023/12/02 09:53:47;;;;;;;48.80;27.67;;;;;;;;;;4975970;28;20062;-79
2023/12/02 09:56:20;;;;;;;47.03;27.92;;;;;;;;;;4982797;28;20396;-79
2023/12/02 09:58:47;;;;;;;42.22;26.30;;;;;;;;;;4993885;28;20049;-79
2023/12/02 10:01:31;;;;;;;45.13;26.92;;;;;;;;;;4994364;28;20050;-79
2023/12/02 10:04:05;;;;;;;44.28;25.65;;;;;;;;;;4998331;28;20041;-79
2023/12/02 10:06:37;;;;;;;45.55;26.50;;;;;;;;;;4993780;28;20050;-79
2023/12/02 10:09:09;;;;;;;44.95;26.67;;;;;;;;;;4989784;28;20046;-79
2023/12/02 10:11:41;;;;;;;42.35;23.85;;;;;;;;;;4989121;28;20518;-79
2023/12/02 10:14:07;;;;;;;;;;;;;;;;;;4976082;28;20042;-79
2023/12/02 10:16:35;;;;;;;42.53;25.65;;;;;;;;;;4993196;28;20363;-79
2023/12/02 10:19:04;;;;;;;44.47;25.88;;;;;;;;;;4993723;28;20416;-79
2023/12/02 10:21:34;;;;;;;42.03;24.48;;;;;;;;;;4993137;28;20532;-79
2023/12/02 10:24:08;;;;;;;45.22;25.60;;;;;;;;;;4992921;28;20139;-79
2023/12/02 10:26:42;;;;;;;45.33;26.00;;;;;;;;;;4993761;28;20049;-79
2023/12/02 10:29:26;;;;;;;40.50;24.35;;;;;;;;;;4992266;28;20050;-78
2023/12/02 10:32:13;;;;;;;41.80;23.88;;;;;;;;;;4985151;28;20076;-78
2023/12/02 10:34:42;;;;;;;42.63;24.73;;;;;;;;;;4982562;28;20083;-78
2023/12/02 10:37:09;;;;;;;43.45;24.83;;;;;;;;;;4983098;28;20050;-79
2023/12/02 10:39:43;;;;;;;41.22;25.10;;;;;;;;;;4985809;28;20106;-78
2023/12/02 10:42:13;;;;;;;42.33;24.83;;;;;;;;;;4986374;28;20104;-78
2023/12/02 10:44:41;;;;;;;48.03;26.55;;;;;;;;;;4982681;28;20108;-78
2023/12/02 10:47:08;;;;;;;42.22;26.15;;;;;;;;;;4986040;28;20041;-78
2023/12/02 10:49:34;;;;;;;41.85;24.38;;;;;;;;;;4987335;28;20133;-78
2023/12/02 10:52:01;;;;;;;37.85;23.40;;;;;;;;;;4988068;28;21193;-78
2023/12/02 10:54:29;;;;;;;42.28;25.45;;;;;;;;;;4984755;28;20058;-78
2023/12/02 10:57:04;;;;;;;40.25;24.52;;;;;;;;;;4990882;28;20054;-78
2023/12/02 10:59:33;;;;;;;39.28;23.48;;;;;;;;;;4996620;28;20113;-78
2023/12/02 11:02:27;;;;;;;42.72;25.05;;;;;;;;;;4998085;28;20042;-78
2023/12/02 11:05:12;;;;;;;42.63;23.77;;;;;;;;;;4984724;28;20131;-78
2023/12/02 11:07:42;;;;;;;42.60;25.05;;;;;;;;;;4984545;28;20058;-78
2023/12/02 11:10:10;;;;;;;40.58;24.10;;;;;;;;;;4985536;28;20041;-78
2023/12/02 11:12:41;;;;;;;42.20;23.38;;;;;;;;;;4985503;28;20125;-78
2023/12/02 11:15:09;;;;;;;;;;;;;;;;;;4989450;28;20142;-77
2023/12/02 11:17:36;;;;;;;43.72;23.75;;;;;;;;;;4990510;28;19928;-78
2023/12/02 11:20:08;;;;;;;43.47;24.98;;;;;;;;;;4989308;28;20047;-78
2023/12/02 11:22:50;;;;;;;40.63;24.95;;;;;;;;;;4993019;28;20046;-78
2023/12/02 11:25:27;;;;;;;41.47;25.40;;;;;;;;;;4994711;28;20054;-78
2023/12/02 11:27:53;;;;;;;38.85;22.88;;;;;;;;;;4994328;28;20411;-78
2023/12/02 11:30:32;;;;;;;44.08;25.52;;;;;;;;;;5010786;28;20160;-78
2023/12/02 11:33:09;;;;;;;42.90;25.55;;;;;;;;;;5006364;28;20046;-78
2023/12/02 11:35:41;;;;;;;42.03;24.33;;;;;;;;;;5004210;28;20053;-77
2023/12/02 11:38:17;;;;;;;49.00;27.85;;;;;;;;;;5003476;28;20049;-77
2023/12/02 11:40:57;;;;;;;41.53;25.05;;;;;;;;;;4997215;28;20046;-77
2023/12/02 11:43:24;;;;;;;41.37;22.67;;;;;;;;;;4995737;28;20181;-77
2023/12/02 11:45:56;;;;;;;40.67;24.65;;;;;;;;;;4996542;28;20308;-77
2023/12/02 11:48:22;;;;;;;;;;;;;;;;;;4997541;28;20050;-77
2023/12/02 11:51:11;;;;;;;37.45;22.48;;;;;;;;;;4996812;28;19922;-77
2023/12/02 11:53:40;;;;;;;43.35;24.33;;;;;;;;;;4935630;29;20067;-78
2023/12/02 11:56:17;;;;;;;42.38;23.02;;;;;;;;;;4951971;29;20106;-77
2023/12/02 11:58:58;;;;;;;42.80;24.85;;;;;;;;;;4929643;29;20056;-77
2023/12/02 12:01:31;;;;;;;39.75;23.83;;;;;;;;;;4935868;29;20052;-77
2023/12/02 12:04:15;;;;;;;42.75;25.25;;;;;;;;;;4904697;29;20075;-77
2023/12/02 12:06:59;;;;;;;42.90;25.13;;;;;;;;;;4939593;29;20174;-78
2023/12/02 12:09:35;;;;;;;42.38;24.75;;;;;;;;;;4936595;29;20513;-77
2023/12/02 12:12:01;;;;;;;42.40;24.23;;;;;;;;;;4936266;29;20051;-77
2023/12/02 12:14:29;;;;;;;43.25;24.75;;;;;;;;;;4935975;29;20083;-77
2023/12/02 12:16:55;;;;;;;41.10;24.52;;;;;;;;;;4953804;29;20051;-77
2023/12/02 12:19:21;;;;;;;42.83;24.60;;;;;;;;;;4937629;29;20055;-77
2023/12/02 12:21:47;;;;;;;44.60;25.02;;;;;;;;;;4918968;29;20094;-77
2023/12/02 12:24:14;;;;;;;46.35;24.52;;;;;;;;;;4946422;29;20414;-77
2023/12/02 12:26:40;;;;;;;41.53;23.92;;;;;;;;;;4943736;29;20478;-77
2023/12/02 12:29:06;;;;;;;44.50;24.95;;;;;;;;;;4935790;29;20087;-77
2023/12/02 12:31:32;;;;;;;42.63;25.38;;;;;;;;;;4971945;28;20417;-77
2023/12/02 12:33:59;;;;;;;42.72;24.55;;;;;;;;;;4976503;28;20109;-77
2023/12/02 12:36:29;;;;;;;41.15;25.27;;;;;;;;;;4976854;28;20058;-77
2023/12/02 12:38:59;;;;;;;45.25;26.30;;;;;;;;;;4976410;28;20054;-77
2023/12/02 12:41:25;;;;;;;46.75;25.75;;;;;;;;;;4988170;28;20050;-78
2023/12/02 12:43:54;;;;;;;41.10;24.23;;;;;;;;;;5001793;28;20129;-78
2023/12/02 12:46:20;;;;;;;45.60;24.95;;;;;;;;;;5011179;28;20094;-78
2023/12/02 12:48:53;;;;;;;44.60;25.65;;;;;;;;;;4995501;28;20046;-78
2023/12/02 12:51:20;;;;;;;44.95;24.60;;;;;;;;;;4995801;28;20050;-78
2023/12/02 12:53:59;;;;;;;45.05;26.30;;;;;;;;;;5008683;28;20081;-77
2023/12/02 12:56:40;;;;;;;46.65;27.15;;;;;;;;;;5012319;28;20081;-77
2023/12/02 12:59:10;;;;;;;45.25;25.42;;;;;;;;;;5007800;28;20048;-78
2023/12/02 13:01:38;;;;;;;46.22;25.85;;;;;;;;;;5016477;28;20471;-78
2023/12/02 13:04:10;;;;;;;44.30;24.60;;;;;;;;;;5015969;28;20054;-78
2023/12/02 13:06:48;;;;;;;48.72;26.42;;;;;;;;;;5014923;28;20048;-78
2023/12/02 13:09:18;;;;;;;47.83;24.60;;;;;;;;;;5014969;28;20133;-78
2023/12/02 13:11:44;;;;;;;47.92;25.77;;;;;;;;;;4996834;28;20057;-78
2023/12/02 13:14:11;;;;;;;46.22;25.30;;;;;;;;;;4994114;28;20054;-78
2023/12/02 13:16:38;;;;;;;47.38;25.25;;;;;;;;;;4993933;28;20058;-78
2023/12/02 13:19:05;;;;;;;44.60;23.73;;;;;;;;;;4994733;28;20053;-78
2023/12/02 13:21:32;;;;;;;47.03;25.25;;;;;;;;;;4993230;28;20038;-78
2023/12/02 13:24:00;;;;;;;46.90;25.65;;;;;;;;;;4990759;28;20122;-77
2023/12/02 13:26:33;;;;;;;47.63;25.02;;;;;;;;;;4993468;28;20043;-77
2023/12/02 13:28:59;;;;;;;43.58;24.55;;;;;;;;;;4994629;28;20065;-77
2023/12/02 13:31:26;;;;;;;45.53;24.63;;;;;;;;;;4993843;28;20145;-78
2023/12/02 13:34:11;;;;;;;42.17;23.67;;;;;;;;;;4994699;28;20057;-78
2023/12/02 13:36:40;;;;;;;41.92;23.10;;;;;;;;;;4995222;28;20046;-78
2023/12/02 13:39:07;;;;;;;43.55;23.80;;;;;;;;;;4994919;28;20456;-77
2023/12/02 13:41:51;;;;;;;43.42;23.92;;;;;;;;;;4994653;28;20515;-77
2023/12/02 13:44:20;;;;;;;41.75;22.35;;;;;;;;;;4994460;28;20038;-77
2023/12/02 13:47:05;;;;;;;43.58;24.38;;;;;;;;;;4994461;28;20054;-78
2023/12/02 13:49:44;;;;;;;44.38;24.63;;;;;;;;;;4993881;28;20057;-78
2023/12/02 13:52:29;;;;;;;50.20;27.67;;;;;;;;;;4987039;28;20397;-77
2023/12/02 13:55:04;;;;;;;49.63;27.52;;;;;;;;;;4994584;28;20085;-77
2023/12/02 13:57:34;;;;;;;46.83;25.92;;;;;;;;;;4991496;28;20078;-77
2023/12/02 14:00:05;;;;;;;51.22;27.13;;;;;;;;;;4991816;28;20073;-78
2023/12/02 14:02:50;;;;;;;47.05;26.10;;;;;;;;;;4978417;28;20092;-78
2023/12/02 14:05:24;;;;;;;49.08;24.90;;;;;;;;;;4993730;28;20056;-78
2023/12/02 14:07:51;;;;;;;44.65;23.85;;;;;;;;;;4992597;28;20496;-78
2023/12/02 14:10:22;;;;;;;47.65;24.30;;;;;;;;;;4994246;28;20536;-78
2023/12/02 14:13:11;;;;;;;46.87;25.20;;;;;;;;;;4994212;28;20106;-78
2023/12/02 14:15:49;;;;;;;45.33;23.20;;;;;;;;;;4993375;28;20034;-78
2023/12/02 14:18:39;;;;;;;45.67;23.80;;;;;;;;;;4976363;28;20058;-78
2023/12/02 14:21:10;;;;;;;48.10;24.92;;;;;;;;;;4988414;28;20137;-78
2023/12/02 14:23:44;;;;;;;48.72;24.65;;;;;;;;;;4992319;28;20042;-78
2023/12/02 14:26:19;;;;;;;48.30;24.42;;;;;;;;;;4990027;28;20492;-78